createdAt,value
2022-08-17T00:02:26.651Z,12.95
2022-08-17T00:04:55.260Z,9.05
2022-08-17T00:07:22.902Z,11.00
2022-08-17T00:09:49.868Z,7.63
2022-08-17T00:12:43.395Z,9.63
2022-08-17T00:15:05.382Z,9.25
2022-08-17T00:17:32.269Z,8.55
2022-08-17T00:20:00.551Z,12.32
2022-08-17T00:22:34.726Z,8.55
2022-08-17T00:25:08.817Z,9.45
2022-08-17T00:27:37.079Z,8.80
2022-08-17T00:30:06.904Z,10.77
2022-08-17T00:33:13.691Z,9.85
2022-08-17T00:35:33.044Z,12.73
2022-08-17T00:38:00.062Z,15.32
2022-08-17T00:40:27.092Z,10.05
2022-08-17T00:43:13.906Z,8.83
2022-08-17T00:45:42.135Z,13.27
2022-08-17T00:48:28.916Z,10.68
2022-08-17T00:51:13.607Z,6.32
2022-08-17T00:53:44.132Z,9.30
2022-08-17T00:56:24.137Z,10.20
2022-08-17T00:58:54.607Z,12.13
2022-08-17T01:01:22.606Z,9.60
2022-08-17T01:03:53.256Z,14.55
2022-08-17T01:06:25.332Z,13.55
2022-08-17T01:08:57.470Z,10.77
2022-08-17T01:11:25.615Z,18.98
2022-08-17T01:13:52.816Z,8.70
2022-08-17T01:16:26.987Z,8.32
2022-08-17T01:18:57.821Z,12.85
2022-08-17T01:21:37.667Z,13.48
2022-08-17T01:24:05.321Z,11.40
2022-08-17T01:26:33.508Z,8.23
2022-08-17T01:29:02.857Z,8.63
2022-08-17T01:31:35.430Z,12.30
2022-08-17T01:34:07.551Z,14.50
2022-08-17T01:36:36.090Z,10.95
2022-08-17T01:39:04.925Z,11.57
2022-08-17T01:41:32.123Z,12.15
2022-08-17T01:44:02.699Z,13.85
2022-08-17T01:46:33.695Z,9.50
2022-08-17T01:49:01.770Z,7.28
2022-08-17T01:51:33.093Z,12.80
2022-08-17T01:56:35.035Z,10.93
2022-08-17T01:59:02.751Z,15.68
2022-08-17T02:01:31.831Z,10.45
2022-08-17T02:04:01.379Z,11.05
2022-08-17T02:06:52.603Z,11.60
2022-08-17T02:09:27.160Z,12.70
2022-08-17T02:11:59.058Z,10.90
2022-08-17T02:14:26.412Z,8.48
2022-08-17T02:16:54.010Z,12.10
2022-08-17T02:19:22.195Z,11.68
2022-08-17T02:21:52.057Z,16.23
2022-08-17T02:25:00.319Z,8.95
2022-08-17T02:27:16.156Z,15.25
2022-08-17T02:29:42.944Z,10.00
2022-08-17T02:32:27.229Z,13.95
2022-08-17T02:34:59.525Z,10.13
2022-08-17T02:37:28.205Z,10.32
2022-08-17T02:39:57.296Z,10.25
2022-08-17T02:42:34.027Z,10.70
2022-08-17T02:45:03.111Z,10.77
2022-08-17T02:47:30.316Z,10.20
2022-08-17T02:49:57.884Z,15.40
2022-08-17T02:52:43.101Z,10.35
2022-08-17T02:55:18.753Z,9.65
2022-08-17T02:57:45.907Z,9.85
2022-08-17T03:00:21.352Z,9.18
2022-08-17T03:02:49.103Z,9.05
2022-08-17T03:05:20.564Z,9.30
2022-08-17T03:07:48.124Z,12.05
2022-08-17T03:10:15.477Z,12.57
2022-08-17T03:12:43.451Z,10.10
2022-08-17T03:15:16.937Z,10.40
2022-08-17T03:17:44.456Z,15.40
2022-08-17T03:20:12.312Z,9.38
2022-08-17T03:22:42.335Z,13.52
2022-08-17T03:25:19.597Z,12.40
2022-08-17T03:27:51.402Z,15.18
2022-08-17T03:30:18.890Z,12.07
2022-08-17T03:32:51.832Z,12.57
2022-08-17T03:35:21.233Z,11.65
2022-08-17T03:37:48.123Z,10.90
2022-08-17T03:40:55.652Z,7.72
2022-08-17T03:43:15.497Z,13.07
2022-08-17T03:46:02.048Z,15.27
2022-08-17T03:48:47.630Z,13.13
2022-08-17T03:51:37.918Z,12.00
2022-08-17T03:54:23.761Z,10.05
2022-08-17T03:57:07.410Z,11.63
2022-08-17T03:59:35.670Z,11.88
2022-08-17T04:02:12.040Z,18.70
2022-08-17T04:04:39.813Z,8.93
2022-08-17T04:07:06.905Z,11.32
2022-08-17T04:09:33.743Z,11.32
2022-08-17T04:12:02.455Z,15.43
2022-08-17T04:14:51.468Z,11.40
2022-08-17T04:17:25.609Z,12.98
2022-08-17T04:19:53.437Z,11.18
2022-08-17T04:22:32.068Z,8.20
2022-08-17T04:25:02.628Z,8.48
2022-08-17T04:27:29.471Z,8.73
2022-08-17T04:29:56.407Z,11.57
2022-08-17T04:33:00.849Z,11.55
2022-08-17T04:35:10.575Z,16.50
2022-08-17T04:37:38.084Z,13.40
2022-08-17T04:40:25.941Z,12.82
2022-08-17T04:43:31.189Z,15.73
2022-08-17T04:46:01.232Z,12.35
2022-08-17T04:48:36.263Z,13.43
2022-08-17T04:51:07.389Z,16.40
2022-08-17T04:53:34.299Z,9.47
2022-08-17T04:56:01.249Z,14.93
2022-08-17T04:58:28.299Z,13.20
2022-08-17T05:00:55.299Z,11.43
2022-08-17T05:03:22.180Z,14.18
2022-08-17T05:05:49.966Z,16.85
2022-08-17T05:08:19.308Z,11.23
2022-08-17T05:10:47.838Z,13.70
2022-08-17T05:13:17.907Z,11.05
2022-08-17T05:15:47.866Z,14.18
2022-08-17T05:18:16.910Z,20.98
2022-08-17T05:20:44.475Z,12.18
2022-08-17T05:23:15.050Z,14.55
2022-08-17T05:25:47.904Z,18.27
2022-08-17T05:28:16.532Z,16.95
2022-08-17T05:30:45.050Z,13.15
2022-08-17T05:33:21.914Z,14.68
2022-08-17T05:35:51.535Z,10.52
2022-08-17T05:38:21.558Z,14.38
2022-08-17T05:40:48.804Z,18.35
2022-08-17T05:43:22.407Z,9.52
2022-08-17T05:46:12.755Z,10.52
2022-08-17T05:48:43.585Z,16.45
2022-08-17T05:51:42.481Z,8.88
2022-08-17T05:54:47.468Z,16.30
2022-08-17T05:57:17.230Z,10.27
2022-08-17T05:59:57.697Z,17.20
2022-08-17T06:02:49.033Z,10.52
2022-08-17T06:08:14.991Z,9.88
2022-08-17T06:10:52.894Z,12.45
2022-08-17T06:13:57.159Z,12.05
2022-08-17T06:16:34.506Z,9.63
2022-08-17T06:19:16.245Z,13.25
2022-08-17T06:21:46.824Z,7.30
2022-08-17T06:24:35.169Z,9.63
2022-08-17T06:27:09.238Z,10.15
2022-08-17T06:29:55.939Z,5.75
2022-08-17T06:32:23.454Z,10.65
2022-08-17T06:34:50.238Z,11.70
2022-08-17T06:37:26.040Z,16.67
2022-08-17T06:40:30.309Z,12.77
2022-08-17T06:43:34.941Z,9.68
2022-08-17T06:46:16.833Z,11.68
2022-08-17T06:48:58.989Z,16.52
2022-08-17T06:51:34.790Z,9.18
2022-08-17T06:54:20.833Z,9.15
2022-08-17T06:57:19.264Z,8.80
2022-08-17T07:00:16.726Z,8.82
2022-08-17T07:03:10.614Z,5.47
2022-08-17T07:08:50.935Z,10.15
2022-08-17T07:12:01.626Z,12.63
2022-08-17T07:14:51.894Z,7.72
2022-08-17T07:17:20.905Z,7.03
2022-08-17T07:19:50.149Z,7.85
2022-08-17T07:22:16.816Z,12.45
2022-08-17T07:24:58.751Z,6.75
2022-08-17T07:27:32.222Z,7.00
2022-08-17T07:30:28.205Z,6.78
2022-08-17T07:33:02.871Z,6.20
2022-08-17T07:35:31.336Z,6.32
2022-08-17T07:38:24.202Z,8.40
2022-08-17T07:41:06.122Z,5.95
2022-08-17T07:43:37.068Z,5.10
2022-08-17T07:46:39.970Z,6.50
2022-08-17T07:49:09.702Z,6.03
2022-08-17T07:51:44.272Z,7.60
2022-08-17T07:54:22.654Z,9.60
2022-08-17T07:56:53.089Z,6.75
2022-08-17T07:59:32.626Z,6.17
2022-08-17T08:02:06.033Z,8.75
2022-08-17T08:04:59.849Z,5.53
2022-08-17T08:07:31.729Z,9.60
2022-08-17T08:10:07.785Z,10.68
2022-08-17T08:12:45.081Z,5.05
2022-08-17T08:15:22.798Z,4.07
2022-08-17T08:17:57.658Z,4.55
2022-08-17T08:20:53.398Z,6.28
2022-08-17T08:23:33.679Z,11.27
2022-08-17T08:26:20.628Z,4.95
2022-08-17T08:28:53.007Z,5.93
2022-08-17T08:31:50.934Z,6.38
2022-08-17T08:35:01.547Z,7.03
2022-08-17T08:37:45.679Z,4.63
2022-08-17T08:40:35.718Z,5.38
2022-08-17T08:43:11.787Z,4.63
2022-08-17T08:45:59.362Z,7.97
2022-08-17T08:48:52.910Z,4.97
2022-08-17T08:51:59.689Z,4.95
2022-08-17T08:54:46.542Z,7.53
2022-08-17T08:57:34.368Z,8.18
2022-08-17T09:00:21.324Z,3.97
2022-08-17T09:03:09.518Z,3.65
2022-08-17T09:05:53.311Z,3.28
2022-08-17T09:08:39.507Z,4.45
2022-08-17T09:11:31.129Z,2.88
2022-08-17T09:14:21.219Z,4.50
2022-08-17T09:17:04.960Z,4.20
2022-08-17T09:19:46.577Z,7.63
2022-08-17T09:22:25.336Z,5.18
2022-08-17T09:24:58.569Z,7.75
2022-08-17T09:27:35.284Z,7.65
2022-08-17T09:30:08.636Z,3.25
2022-08-17T09:32:47.230Z,3.35
2022-08-17T09:35:25.299Z,3.65
2022-08-17T09:38:20.618Z,4.93
2022-08-17T09:40:57.621Z,3.20
2022-08-17T09:43:41.794Z,3.63
2022-08-17T09:46:11.616Z,2.55
2022-08-17T09:49:36.282Z,2.15
2022-08-17T09:52:10.129Z,4.38
2022-08-17T09:54:41.084Z,2.75
2022-08-17T09:57:29.143Z,5.72
2022-08-17T09:59:59.558Z,4.40
2022-08-17T10:02:55.715Z,4.50
2022-08-17T10:05:26.012Z,9.38
2022-08-17T10:08:23.479Z,4.10
2022-08-17T10:11:08.315Z,4.72
2022-08-17T10:13:41.406Z,3.45
2022-08-17T10:16:32.349Z,4.30
2022-08-17T10:19:02.282Z,2.30
2022-08-17T10:22:01.011Z,3.08
2022-08-17T10:25:23.739Z,2.60
2022-08-17T10:27:57.831Z,7.97
2022-08-17T10:30:33.558Z,3.72
2022-08-17T10:33:03.520Z,2.97
2022-08-17T10:35:49.172Z,6.70
2022-08-17T10:38:42.206Z,11.88
2022-08-17T10:41:28.580Z,10.82
2022-08-17T10:44:38.861Z,5.40
2022-08-17T10:47:16.978Z,2.05
2022-08-17T10:49:52.634Z,3.92
2022-08-17T10:52:24.960Z,3.22
2022-08-17T10:54:51.901Z,3.83
2022-08-17T10:57:28.313Z,5.85
2022-08-17T10:59:59.996Z,4.85
2022-08-17T11:02:39.753Z,4.45
2022-08-17T11:05:29.151Z,3.67
2022-08-17T11:08:05.657Z,8.05
2022-08-17T11:11:09.882Z,3.88
2022-08-17T11:13:45.450Z,4.45
2022-08-17T11:16:40.611Z,6.25
2022-08-17T11:19:34.126Z,3.40
2022-08-17T11:22:06.734Z,4.30
2022-08-17T11:24:48.174Z,4.45
2022-08-17T11:27:32.635Z,2.90
2022-08-17T11:30:03.024Z,2.42
2022-08-17T11:32:34.822Z,3.40
2022-08-17T11:35:16.347Z,5.88
2022-08-17T11:38:16.420Z,4.57
2022-08-17T11:41:09.408Z,4.57
2022-08-17T11:43:55.648Z,3.85
2022-08-17T11:47:19.033Z,2.90
2022-08-17T11:50:10.542Z,2.45
2022-08-17T11:52:39.949Z,2.15
2022-08-17T11:55:34.149Z,3.40
2022-08-17T11:58:01.970Z,2.05
2022-08-17T12:00:52.020Z,4.85
2022-08-17T12:03:22.736Z,2.85
2022-08-17T12:05:53.601Z,2.53
2022-08-17T12:08:22.051Z,3.72
2022-08-17T12:11:11.814Z,4.18
2022-08-17T12:13:52.212Z,4.75
2022-08-17T12:16:21.682Z,5.57
2022-08-17T12:18:57.705Z,9.40
2022-08-17T12:21:40.890Z,3.17
2022-08-17T12:24:31.683Z,2.80
2022-08-17T12:27:04.570Z,4.15
2022-08-17T12:29:35.600Z,3.30
2022-08-17T12:32:07.290Z,5.07
2022-08-17T12:34:40.054Z,2.75
2022-08-17T12:37:15.319Z,2.78
2022-08-17T12:39:53.350Z,5.57
2022-08-17T12:42:27.443Z,3.55
2022-08-17T12:44:54.280Z,3.58
2022-08-17T12:47:23.132Z,4.43
2022-08-17T12:49:52.697Z,4.47
2022-08-17T12:52:29.697Z,5.70
2022-08-17T12:54:56.467Z,2.92
2022-08-17T12:57:25.827Z,4.25
2022-08-17T12:59:59.000Z,7.40
2022-08-17T13:02:40.305Z,2.22
2022-08-17T13:05:17.959Z,7.03
2022-08-17T13:07:46.741Z,3.15
2022-08-17T13:10:19.607Z,6.35
2022-08-17T13:12:48.162Z,4.53
2022-08-17T13:15:44.379Z,5.47
2022-08-17T13:18:33.934Z,3.78
2022-08-17T13:21:01.310Z,4.88
2022-08-17T13:23:29.811Z,3.28
2022-08-17T13:28:36.294Z,2.88
2022-08-17T13:31:21.704Z,5.50
2022-08-17T13:33:48.562Z,3.70
2022-08-17T13:36:32.157Z,2.70
2022-08-17T13:39:21.933Z,2.75
2022-08-17T13:41:50.895Z,7.35
2022-08-17T13:44:40.600Z,3.70
2022-08-17T13:47:19.017Z,5.80
2022-08-17T13:49:49.078Z,3.65
2022-08-17T13:52:31.512Z,5.28
2022-08-17T13:55:05.512Z,3.60
2022-08-17T13:57:32.441Z,5.80
2022-08-17T14:00:35.569Z,3.58
2022-08-17T14:03:04.103Z,3.30
2022-08-17T14:05:32.454Z,3.45
2022-08-17T14:08:06.728Z,3.10
2022-08-17T14:10:36.667Z,2.92
2022-08-17T14:13:04.147Z,5.55
2022-08-17T14:15:53.907Z,3.88
2022-08-17T14:18:35.716Z,3.50
2022-08-17T14:21:08.597Z,4.60
2022-08-17T14:23:36.827Z,3.25
2022-08-17T14:26:04.866Z,2.28
2022-08-17T14:28:31.994Z,3.90
2022-08-17T14:31:00.862Z,3.22
2022-08-17T14:33:29.071Z,2.30
2022-08-17T14:35:57.639Z,3.20
2022-08-17T14:38:24.804Z,3.40
2022-08-17T14:40:52.087Z,5.63
2022-08-17T14:43:20.577Z,4.05
2022-08-17T14:45:47.799Z,5.00
2022-08-17T14:48:14.622Z,4.03
2022-08-17T14:50:43.299Z,2.63
2022-08-17T14:53:16.548Z,4.60
2022-08-17T14:55:46.860Z,2.85
2022-08-17T14:58:14.252Z,3.95
2022-08-17T15:00:43.173Z,8.07
2022-08-17T15:03:11.613Z,4.10
2022-08-17T15:05:39.187Z,3.38
2022-08-17T15:08:07.234Z,3.75
2022-08-17T15:10:34.483Z,4.53
2022-08-17T15:13:01.445Z,3.72
2022-08-17T15:15:29.234Z,5.10
2022-08-17T15:17:56.274Z,4.60
2022-08-17T15:20:28.247Z,5.70
2022-08-17T15:22:57.434Z,6.65
2022-08-17T15:25:32.641Z,6.05
2022-08-17T15:28:00.407Z,5.90
2022-08-17T15:30:28.448Z,5.65
2022-08-17T15:32:57.812Z,5.28
2022-08-17T15:35:29.043Z,6.20
2022-08-17T15:38:06.207Z,6.05
2022-08-17T15:40:37.561Z,4.80
2022-08-17T15:43:11.733Z,6.82
2022-08-17T15:45:39.562Z,3.88
2022-08-17T15:48:07.121Z,6.80
2022-08-17T15:50:34.219Z,13.00
2022-08-17T15:53:02.353Z,9.77
2022-08-17T15:55:31.663Z,7.72
2022-08-17T15:57:59.296Z,6.82
2022-08-17T16:00:28.808Z,7.45
2022-08-17T16:03:46.107Z,13.02
2022-08-17T16:05:45.000Z,7.20
2022-08-17T16:08:18.533Z,8.13
2022-08-17T16:10:48.746Z,4.70
2022-08-17T16:13:17.166Z,8.82
2022-08-17T16:15:49.722Z,8.90
2022-08-17T16:18:31.236Z,5.85
2022-08-17T16:21:23.936Z,6.72
2022-08-17T16:23:56.416Z,9.05
2022-08-17T16:26:24.588Z,5.55
2022-08-17T16:28:51.641Z,5.45
2022-08-17T16:31:18.892Z,8.70
2022-08-17T16:34:16.046Z,7.68
2022-08-17T16:36:33.311Z,10.02
2022-08-17T16:39:01.638Z,6.72
2022-08-17T16:41:44.658Z,9.38
2022-08-17T16:44:20.619Z,6.32
2022-08-17T16:46:48.932Z,6.32
2022-08-17T16:49:35.358Z,9.95
2022-08-17T16:52:04.696Z,8.90
2022-08-17T16:54:31.646Z,9.43
2022-08-17T16:56:58.478Z,8.40
2022-08-17T16:59:30.088Z,7.45
2022-08-17T17:02:05.065Z,8.02
2022-08-17T17:04:35.092Z,8.90
2022-08-17T17:08:03.770Z,8.40
2022-08-17T17:10:43.756Z,6.32
2022-08-17T17:13:21.131Z,6.05
2022-08-17T17:15:48.059Z,6.78
2022-08-17T17:18:16.335Z,7.95
2022-08-17T17:20:50.858Z,10.10
2022-08-17T17:23:41.411Z,5.72
2022-08-17T17:26:14.486Z,5.90
2022-08-17T17:28:42.869Z,8.50
2022-08-17T17:31:16.581Z,9.48
2022-08-17T17:33:52.751Z,5.80
2022-08-17T17:36:37.892Z,8.27
2022-08-17T17:39:13.515Z,6.88
2022-08-17T17:41:57.449Z,6.95
2022-08-17T17:44:47.283Z,6.10
2022-08-17T17:47:16.788Z,5.65
2022-08-17T17:49:49.208Z,9.00
2022-08-17T17:52:38.526Z,10.15
2022-08-17T17:55:45.666Z,9.02
2022-08-17T17:58:44.144Z,8.27
2022-08-17T18:01:43.400Z,5.75
2022-08-17T18:04:30.579Z,8.00
2022-08-17T18:07:44.870Z,10.65
2022-08-17T18:10:40.209Z,5.05
2022-08-17T18:13:28.653Z,6.93
2022-08-17T18:15:56.801Z,7.45
2022-08-17T18:18:38.161Z,9.80
2022-08-17T18:21:24.081Z,14.55
2022-08-17T18:24:03.775Z,9.18
2022-08-17T18:26:33.944Z,7.60
2022-08-17T18:29:02.739Z,9.32
2022-08-17T18:31:29.931Z,9.65
2022-08-17T18:34:45.876Z,8.18
2022-08-17T18:37:11.029Z,7.78
2022-08-17T18:39:43.035Z,8.45
2022-08-17T18:42:26.726Z,7.13
2022-08-17T18:44:55.303Z,7.05
2022-08-17T18:47:29.536Z,8.48
2022-08-17T18:50:18.230Z,13.55
2022-08-17T18:52:48.367Z,8.85
2022-08-17T18:55:23.954Z,9.02
2022-08-17T18:57:52.646Z,8.18
2022-08-17T19:00:40.709Z,8.95
2022-08-17T19:03:18.533Z,5.88
2022-08-17T19:05:50.024Z,9.48
2022-08-17T19:08:24.445Z,9.13
2022-08-17T19:11:10.079Z,11.73
2022-08-17T19:13:57.909Z,10.13
2022-08-17T19:16:29.319Z,7.95
2022-08-17T19:19:10.182Z,5.95
2022-08-17T19:21:43.268Z,8.20
2022-08-17T19:24:19.878Z,7.70
2022-08-17T19:26:56.582Z,8.57
2022-08-17T19:29:44.243Z,9.52
2022-08-17T19:32:16.527Z,10.45
2022-08-17T19:34:44.825Z,11.82
2022-08-17T19:37:37.650Z,10.13
2022-08-17T19:40:50.583Z,9.80
2022-08-17T19:43:25.600Z,6.88
2022-08-17T19:46:15.390Z,7.93
2022-08-17T19:48:57.949Z,8.90
2022-08-17T19:51:36.289Z,7.47
2022-08-17T19:54:20.586Z,11.02
2022-08-17T19:57:10.182Z,9.50
2022-08-17T20:00:02.078Z,9.65
2022-08-17T20:02:35.918Z,8.52
2022-08-17T20:05:08.963Z,8.05
2022-08-17T20:07:51.542Z,10.65
2022-08-17T20:10:54.661Z,9.30
2022-08-17T20:13:34.026Z,8.82
2022-08-17T20:16:02.800Z,9.20
2022-08-17T20:18:38.489Z,11.98
2022-08-17T20:21:27.195Z,12.50
2022-08-17T20:24:13.289Z,9.32
2022-08-17T20:27:10.184Z,12.23
2022-08-17T20:30:11.078Z,8.68
2022-08-17T20:32:41.189Z,8.10
2022-08-17T20:35:30.562Z,8.25
2022-08-17T20:37:57.696Z,13.65
2022-08-17T20:40:38.518Z,10.93
2022-08-17T20:43:30.201Z,12.63
2022-08-17T20:46:21.524Z,11.60
2022-08-17T20:48:52.831Z,11.77
2022-08-17T20:51:34.868Z,13.20
2022-08-17T20:54:42.064Z,10.55
2022-08-17T20:57:14.311Z,9.85
2022-08-17T20:59:45.107Z,10.50
2022-08-17T21:02:20.207Z,12.18
2022-08-17T21:05:00.349Z,13.68
2022-08-17T21:07:30.365Z,11.23
2022-08-17T21:10:39.295Z,11.20
2022-08-17T21:13:12.607Z,12.90
2022-08-17T21:15:42.661Z,7.95
2022-08-17T21:18:18.670Z,8.43
2022-08-17T21:21:07.472Z,9.88
2022-08-17T21:24:06.530Z,9.40
2022-08-17T21:26:52.211Z,10.80
2022-08-17T21:29:31.888Z,7.07
2022-08-17T21:32:00.630Z,7.38
2022-08-17T21:34:45.462Z,8.57
2022-08-17T21:37:24.026Z,9.27
2022-08-17T21:40:13.753Z,5.18
2022-08-17T21:42:49.755Z,8.07
2022-08-17T21:45:36.767Z,9.88
2022-08-17T21:48:24.860Z,7.43
2022-08-17T21:51:14.181Z,10.32
2022-08-17T21:53:56.067Z,8.20
2022-08-17T21:56:29.683Z,9.38
2022-08-17T21:59:01.345Z,8.20
2022-08-17T22:01:34.815Z,8.70
2022-08-17T22:04:04.241Z,13.85
2022-08-17T22:06:38.611Z,9.32
2022-08-17T22:09:10.776Z,6.80
2022-08-17T22:11:53.853Z,12.23
2022-08-17T22:14:52.532Z,10.48
2022-08-17T22:17:26.758Z,9.70
2022-08-17T22:20:01.740Z,11.35
2022-08-17T22:23:15.321Z,11.18
2022-08-17T22:26:02.496Z,12.13
2022-08-17T22:28:38.912Z,14.27
2022-08-17T22:31:08.372Z,9.40
2022-08-17T22:33:46.732Z,10.35
2022-08-17T22:36:13.779Z,9.95
2022-08-17T22:38:42.004Z,11.15
2022-08-17T22:41:36.483Z,11.60
2022-08-17T22:44:28.290Z,16.42
2022-08-17T22:46:56.079Z,14.60
2022-08-17T22:49:37.008Z,19.02
2022-08-17T22:52:07.217Z,18.70
2022-08-17T22:54:52.761Z,12.60
2022-08-17T22:57:56.725Z,14.20
2022-08-17T23:00:41.947Z,15.63
2022-08-17T23:03:14.214Z,15.32
2022-08-17T23:05:45.207Z,13.82
2022-08-17T23:08:13.991Z,16.35
2022-08-17T23:10:43.101Z,12.13
2022-08-17T23:13:12.180Z,15.52
2022-08-17T23:15:42.239Z,15.30
2022-08-17T23:18:09.546Z,13.43
2022-08-17T23:20:39.464Z,10.60
2022-08-17T23:23:09.130Z,11.73
2022-08-17T23:25:36.842Z,12.60
2022-08-17T23:28:09.308Z,10.70
2022-08-17T23:30:39.933Z,10.77
2022-08-17T23:33:18.265Z,11.82
2022-08-17T23:35:45.510Z,9.88
2022-08-17T23:38:13.892Z,9.27
2022-08-17T23:40:41.194Z,15.80
2022-08-17T23:43:23.491Z,11.20
2022-08-17T23:45:54.121Z,10.65
2022-08-17T23:48:36.132Z,11.07
2022-08-17T23:51:19.192Z,8.23
2022-08-17T23:53:50.234Z,7.25
2022-08-17T23:56:23.015Z,7.13
2022-08-17T23:58:50.017Z,7.85
